createdAt,value
2023-10-15T00:00:20.846Z,1.92
2023-10-15T00:02:49.886Z,1.73
2023-10-15T00:05:19.430Z,1.50
2023-10-15T00:07:50.769Z,1.33
2023-10-15T00:10:20.128Z,1.23
2023-10-15T00:12:49.832Z,1.40
2023-10-15T00:15:21.968Z,1.27
2023-10-15T00:17:53.836Z,1.60
2023-10-15T00:20:22.392Z,1.13
2023-10-15T00:22:52.221Z,1.20
2023-10-15T00:25:21.096Z,1.38
2023-10-15T00:27:54.282Z,1.48
2023-10-15T00:30:22.849Z,1.33
2023-10-15T00:32:50.769Z,1.20
2023-10-15T00:35:20.961Z,1.40
2023-10-15T00:37:58.096Z,1.10
2023-10-15T00:40:26.433Z,1.23
2023-10-15T00:42:53.733Z,1.40
2023-10-15T00:45:22.141Z,1.30
2023-10-15T00:48:09.389Z,1.40
2023-10-15T00:50:42.669Z,1.50
2023-10-15T00:53:23.250Z,1.20
2023-10-15T00:56:04.721Z,1.02
2023-10-15T00:58:40.694Z,1.30
2023-10-15T01:01:21.287Z,1.23
2023-10-15T01:03:55.995Z,1.38
2023-10-15T01:06:31.630Z,1.40
2023-10-15T01:09:02.373Z,1.20
2023-10-15T01:11:30.631Z,1.55
2023-10-15T01:13:58.505Z,1.20
2023-10-15T01:16:28.881Z,1.10
2023-10-15T01:19:01.015Z,1.13
2023-10-15T01:21:30.920Z,1.00
2023-10-15T01:24:07.182Z,1.35
2023-10-15T01:26:37.701Z,0.87
2023-10-15T01:29:07.828Z,1.00
2023-10-15T01:31:57.080Z,0.90
2023-10-15T01:34:24.263Z,0.90
2023-10-15T01:36:52.352Z,0.90
2023-10-15T01:39:33.978Z,0.83
2023-10-15T01:42:04.873Z,0.80
2023-10-15T01:44:32.202Z,0.98
2023-10-15T01:47:04.974Z,1.00
2023-10-15T01:49:35.261Z,0.90
2023-10-15T01:52:27.041Z,0.90
2023-10-15T01:54:54.653Z,1.00
2023-10-15T01:57:23.258Z,0.93
2023-10-15T01:59:56.937Z,0.90
2023-10-15T02:02:25.499Z,1.00
2023-10-15T02:04:58.504Z,0.93
2023-10-15T02:07:25.825Z,0.88
2023-10-15T02:09:52.724Z,0.93
2023-10-15T02:12:19.932Z,1.05
2023-10-15T02:14:49.093Z,1.10
2023-10-15T02:17:20.052Z,1.00
2023-10-15T02:19:49.129Z,1.00
2023-10-15T02:22:16.569Z,1.00
2023-10-15T02:24:49.218Z,1.00
2023-10-15T02:27:26.704Z,0.95
2023-10-15T02:29:53.702Z,1.03
2023-10-15T02:32:22.873Z,0.90
2023-10-15T02:34:53.205Z,1.05
2023-10-15T02:37:25.067Z,1.00
2023-10-15T02:39:52.166Z,0.90
2023-10-15T02:42:21.637Z,1.33
2023-10-15T02:44:54.895Z,1.08
2023-10-15T02:47:30.066Z,1.20
2023-10-15T02:50:01.834Z,0.90
2023-10-15T02:52:49.186Z,1.10
2023-10-15T02:55:18.001Z,1.00
2023-10-15T02:57:45.835Z,1.00
2023-10-15T03:00:15.268Z,1.10
2023-10-15T03:02:45.987Z,0.90
2023-10-15T03:05:16.982Z,1.20
2023-10-15T03:07:44.853Z,0.90
2023-10-15T03:10:13.459Z,0.80
2023-10-15T03:12:46.102Z,0.90
2023-10-15T03:15:17.687Z,0.90
2023-10-15T03:17:45.482Z,0.80
2023-10-15T03:20:19.190Z,0.90
2023-10-15T03:22:53.434Z,1.10
2023-10-15T03:25:21.535Z,0.90
2023-10-15T03:27:48.612Z,0.80
2023-10-15T03:30:16.621Z,1.00
2023-10-15T03:32:47.014Z,1.30
2023-10-15T03:35:28.952Z,1.20
2023-10-15T03:38:02.730Z,1.20
2023-10-15T03:40:34.124Z,1.10
2023-10-15T03:43:16.691Z,1.20
2023-10-15T03:45:53.479Z,0.90
2023-10-15T03:48:31.608Z,1.08
2023-10-15T03:50:59.696Z,0.80
2023-10-15T03:53:32.702Z,1.00
2023-10-15T03:56:02.726Z,0.90
2023-10-15T03:58:32.572Z,0.90
2023-10-15T04:01:18.545Z,0.90
2023-10-15T04:03:49.038Z,0.90
2023-10-15T04:06:18.000Z,0.90
2023-10-15T04:09:05.885Z,0.75
2023-10-15T04:11:43.647Z,1.10
2023-10-15T04:14:19.344Z,0.90
2023-10-15T04:16:48.272Z,0.90
2023-10-15T04:19:19.368Z,0.80
2023-10-15T04:21:48.110Z,0.90
2023-10-15T04:24:15.671Z,1.00
2023-10-15T04:26:44.073Z,1.00
2023-10-15T04:29:22.214Z,0.90
2023-10-15T04:32:01.524Z,0.93
2023-10-15T04:34:30.658Z,0.90
2023-10-15T04:36:58.441Z,0.90
2023-10-15T04:39:45.596Z,0.80
2023-10-15T04:42:21.327Z,0.90
2023-10-15T04:44:51.429Z,0.93
2023-10-15T04:47:40.223Z,1.10
2023-10-15T04:50:16.174Z,1.00
2023-10-15T04:52:46.141Z,0.90
2023-10-15T04:55:15.024Z,1.00
2023-10-15T04:57:41.962Z,1.00
2023-10-15T05:00:09.022Z,0.90
2023-10-15T05:02:35.937Z,1.00
2023-10-15T05:05:06.728Z,0.88
2023-10-15T05:07:34.151Z,1.05
2023-10-15T05:10:01.056Z,0.90
2023-10-15T05:12:29.634Z,1.00
2023-10-15T05:14:56.581Z,1.00
2023-10-15T05:17:23.737Z,1.20
2023-10-15T05:19:54.364Z,1.25
2023-10-15T05:22:22.109Z,1.02
2023-10-15T05:24:49.298Z,1.30
2023-10-15T05:27:16.154Z,1.20
2023-10-15T05:29:43.312Z,1.10
2023-10-15T05:32:10.230Z,1.00
2023-10-15T05:34:37.089Z,0.90
2023-10-15T05:37:04.025Z,0.95
2023-10-15T05:39:30.893Z,0.87
2023-10-15T05:41:57.716Z,0.95
2023-10-15T05:44:24.722Z,1.13
2023-10-15T05:46:51.750Z,1.20
2023-10-15T05:49:18.673Z,1.30
2023-10-15T05:51:46.212Z,1.27
2023-10-15T05:54:13.857Z,1.10
2023-10-15T05:56:40.824Z,1.25
2023-10-15T05:59:09.139Z,0.95
2023-10-15T06:01:36.131Z,1.00
2023-10-15T06:04:04.320Z,0.97
2023-10-15T06:06:31.309Z,1.20
2023-10-15T06:09:00.759Z,1.23
2023-10-15T06:11:28.835Z,1.10
2023-10-15T06:13:55.790Z,1.15
2023-10-15T06:16:22.699Z,1.57
2023-10-15T06:18:49.543Z,1.10
2023-10-15T06:21:17.115Z,1.20
2023-10-15T06:23:44.052Z,1.20
2023-10-15T06:26:11.932Z,1.73
2023-10-15T06:28:38.990Z,1.23
2023-10-15T06:31:06.223Z,1.42
2023-10-15T06:33:34.173Z,1.10
2023-10-15T06:36:00.981Z,1.00
2023-10-15T06:38:27.873Z,1.20
2023-10-15T06:40:54.719Z,1.20
2023-10-15T06:43:21.713Z,1.10
2023-10-15T06:45:48.652Z,1.10
2023-10-15T06:48:15.566Z,1.20
2023-10-15T06:50:42.682Z,1.17
2023-10-15T06:53:10.097Z,1.13
2023-10-15T06:55:37.125Z,1.23
2023-10-15T06:58:04.357Z,1.20
2023-10-15T07:00:33.249Z,1.02
2023-10-15T07:03:00.423Z,1.13
2023-10-15T07:05:28.158Z,1.10
2023-10-15T07:07:59.193Z,1.00
2023-10-15T07:10:27.224Z,1.10
2023-10-15T07:12:55.834Z,1.10
2023-10-15T07:15:23.172Z,1.00
2023-10-15T07:17:50.922Z,1.03
2023-10-15T07:20:36.565Z,1.17
2023-10-15T07:23:03.781Z,1.40
2023-10-15T07:25:31.039Z,1.10
2023-10-15T07:27:59.815Z,1.30
2023-10-15T07:30:27.378Z,1.07
2023-10-15T07:32:58.715Z,1.08
2023-10-15T07:35:27.822Z,1.17
2023-10-15T07:37:55.060Z,1.27
2023-10-15T07:40:23.850Z,1.20
2023-10-15T07:42:53.399Z,0.90
2023-10-15T07:45:22.251Z,1.10
2023-10-15T07:47:50.140Z,1.10
2023-10-15T07:50:19.243Z,1.00
2023-10-15T07:52:47.260Z,1.35
2023-10-15T07:55:14.913Z,1.37
2023-10-15T07:57:41.899Z,1.23
2023-10-15T08:00:16.039Z,1.60
2023-10-15T08:02:46.965Z,1.10
2023-10-15T08:05:14.547Z,1.17
2023-10-15T08:07:47.735Z,1.07
2023-10-15T08:10:18.152Z,1.08
2023-10-15T08:12:45.803Z,1.10
2023-10-15T08:15:12.707Z,1.10
2023-10-15T08:17:39.641Z,1.20
2023-10-15T08:20:10.489Z,1.10
2023-10-15T08:22:38.112Z,1.30
2023-10-15T08:25:05.270Z,1.20
2023-10-15T08:27:34.741Z,1.15
2023-10-15T08:30:01.597Z,1.00
2023-10-15T08:32:28.494Z,1.20
2023-10-15T08:34:55.443Z,1.00
2023-10-15T08:37:23.960Z,1.13
2023-10-15T08:39:50.893Z,1.10
2023-10-15T08:42:21.810Z,1.30
2023-10-15T08:44:57.880Z,1.10
2023-10-15T08:47:27.093Z,1.10
2023-10-15T08:49:56.426Z,1.25
2023-10-15T08:52:24.589Z,1.20
2023-10-15T08:54:53.086Z,1.02
2023-10-15T08:57:20.358Z,1.10
2023-10-15T08:59:48.707Z,1.33
2023-10-15T09:02:16.776Z,1.05
2023-10-15T09:04:46.375Z,1.20
2023-10-15T09:07:16.655Z,1.20
2023-10-15T09:09:43.916Z,1.20
2023-10-15T09:12:14.115Z,1.20
2023-10-15T09:14:46.550Z,1.30
2023-10-15T09:17:18.644Z,1.20
2023-10-15T09:19:50.205Z,1.20
2023-10-15T09:22:17.236Z,1.07
2023-10-15T09:24:44.528Z,1.10
2023-10-15T09:27:12.060Z,1.15
2023-10-15T09:29:39.820Z,0.90
2023-10-15T09:32:07.395Z,1.02
2023-10-15T09:34:39.229Z,1.07
2023-10-15T09:37:07.475Z,1.00
2023-10-15T09:39:35.800Z,1.38
2023-10-15T09:42:05.695Z,1.10
2023-10-15T09:44:34.045Z,0.90
2023-10-15T09:47:03.183Z,0.80
2023-10-15T09:49:34.360Z,0.80
2023-10-15T09:52:07.830Z,0.82
2023-10-15T09:54:35.191Z,1.00
2023-10-15T09:57:03.533Z,1.10
2023-10-15T09:59:33.243Z,0.80
2023-10-15T10:02:07.371Z,0.85
2023-10-15T10:04:44.658Z,1.15
2023-10-15T10:07:21.368Z,1.00
2023-10-15T10:10:07.064Z,0.90
2023-10-15T10:12:53.049Z,1.10
2023-10-15T10:15:29.790Z,0.90
2023-10-15T10:17:57.162Z,1.00
2023-10-15T10:20:37.158Z,1.00
2023-10-15T10:23:06.974Z,0.95
2023-10-15T10:25:43.900Z,1.20
2023-10-15T10:28:21.277Z,1.00
2023-10-15T10:31:01.703Z,1.00
2023-10-15T10:33:43.897Z,1.00
2023-10-15T10:36:15.036Z,0.93
2023-10-15T10:39:09.235Z,0.90
2023-10-15T10:41:40.126Z,1.23
2023-10-15T10:44:31.098Z,1.40
2023-10-15T10:46:58.358Z,1.00
2023-10-15T10:49:41.790Z,1.00
2023-10-15T10:52:16.281Z,1.30
2023-10-15T10:54:46.974Z,1.30
2023-10-15T10:57:19.293Z,1.30
2023-10-15T10:59:46.180Z,1.13
2023-10-15T11:02:15.557Z,1.30
2023-10-15T11:04:43.522Z,1.80
2023-10-15T11:07:12.438Z,1.17
2023-10-15T11:09:39.795Z,1.42
2023-10-15T11:12:10.514Z,1.27
2023-10-15T11:14:38.047Z,1.30
2023-10-15T11:17:07.138Z,1.30
2023-10-15T11:19:34.102Z,1.20
2023-10-15T11:22:00.999Z,1.00
2023-10-15T11:24:28.614Z,1.00
2023-10-15T11:26:56.262Z,1.10
2023-10-15T11:29:25.027Z,1.10
2023-10-15T11:31:57.086Z,1.17
2023-10-15T11:34:26.379Z,1.20
2023-10-15T11:36:57.590Z,1.30
2023-10-15T11:39:26.944Z,1.10
2023-10-15T11:41:57.736Z,1.30
2023-10-15T11:44:32.296Z,1.20
2023-10-15T11:47:11.350Z,1.02
2023-10-15T11:49:45.317Z,0.90
2023-10-15T11:52:19.724Z,1.10
2023-10-15T11:54:55.302Z,1.10
2023-10-15T11:57:26.688Z,1.17
2023-10-15T11:59:57.613Z,1.13
2023-10-15T12:02:27.849Z,1.20
2023-10-15T12:04:58.666Z,1.10
2023-10-15T12:07:26.008Z,1.13
2023-10-15T12:09:52.894Z,1.20
2023-10-15T12:12:19.990Z,1.30
2023-10-15T12:14:47.291Z,1.30
2023-10-15T12:17:17.608Z,1.40
2023-10-15T12:19:46.408Z,1.10
2023-10-15T12:22:16.306Z,1.20
2023-10-15T12:24:43.925Z,1.20
2023-10-15T12:27:11.044Z,1.20
2023-10-15T12:29:40.349Z,1.30
2023-10-15T12:32:10.098Z,1.20
2023-10-15T12:34:41.026Z,1.20
2023-10-15T12:37:08.681Z,1.40
2023-10-15T12:39:36.469Z,1.30
2023-10-15T12:42:06.653Z,1.20
2023-10-15T12:44:37.787Z,1.30
2023-10-15T12:47:05.259Z,1.20
2023-10-15T12:49:33.141Z,1.27
2023-10-15T12:52:00.157Z,1.30
2023-10-15T12:54:27.188Z,1.13
2023-10-15T12:56:54.896Z,1.20
2023-10-15T12:59:21.877Z,1.40
2023-10-15T13:01:49.246Z,1.27
2023-10-15T13:04:16.158Z,1.20
2023-10-15T13:06:42.931Z,1.30
2023-10-15T13:09:10.219Z,1.13
2023-10-15T13:11:37.988Z,1.40
2023-10-15T13:14:06.209Z,1.20
2023-10-15T13:16:33.102Z,1.20
2023-10-15T13:19:00.188Z,1.10
2023-10-15T13:21:27.139Z,1.17
2023-10-15T13:23:53.969Z,1.20
2023-10-15T13:26:20.783Z,1.13
2023-10-15T13:28:49.352Z,1.10
2023-10-15T13:31:16.192Z,1.17
2023-10-15T13:33:43.101Z,1.20
2023-10-15T13:36:10.460Z,1.20
2023-10-15T13:38:38.554Z,1.25
2023-10-15T13:41:06.523Z,1.10
2023-10-15T13:43:33.351Z,1.33
2023-10-15T13:46:00.182Z,1.27
2023-10-15T13:48:27.129Z,0.90
2023-10-15T13:50:54.057Z,0.90
2023-10-15T13:53:21.066Z,1.20
2023-10-15T13:55:47.913Z,0.95
2023-10-15T13:58:14.946Z,1.00
2023-10-15T14:00:41.866Z,1.00
2023-10-15T14:03:08.898Z,1.10
2023-10-15T14:05:39.807Z,1.10
2023-10-15T14:08:10.000Z,1.20
2023-10-15T14:10:39.005Z,1.10
2023-10-15T14:13:19.827Z,1.10
2023-10-15T14:15:48.214Z,1.10
2023-10-15T14:18:16.305Z,1.10
2023-10-15T14:20:44.172Z,1.20
2023-10-15T14:23:11.154Z,1.07
2023-10-15T14:25:38.189Z,1.20
2023-10-15T14:28:05.278Z,1.10
2023-10-15T14:30:34.126Z,1.10
2023-10-15T14:33:01.232Z,1.30
2023-10-15T14:35:28.323Z,1.00
2023-10-15T14:37:55.456Z,1.23
2023-10-15T14:40:22.797Z,1.10
2023-10-15T14:42:50.443Z,1.10
2023-10-15T14:45:19.051Z,0.90
2023-10-15T14:47:46.019Z,0.90
2023-10-15T14:50:13.827Z,1.00
2023-10-15T14:52:41.259Z,1.30
2023-10-15T14:55:08.336Z,1.20
2023-10-15T14:57:35.274Z,1.02
2023-10-15T15:00:05.255Z,1.10
2023-10-15T15:02:32.167Z,1.10
2023-10-15T15:04:59.157Z,1.30
2023-10-15T15:07:27.957Z,1.20
2023-10-15T15:09:54.807Z,1.10
2023-10-15T15:12:21.612Z,1.17
2023-10-15T15:14:48.360Z,1.20
2023-10-15T15:17:16.062Z,1.00
2023-10-15T15:19:47.456Z,1.08
2023-10-15T15:22:14.638Z,1.02
2023-10-15T15:24:42.592Z,1.00
2023-10-15T15:27:12.076Z,1.10
2023-10-15T15:29:39.002Z,1.10
2023-10-15T15:32:06.037Z,1.20
2023-10-15T15:34:33.031Z,1.00
2023-10-15T15:36:59.948Z,1.00
2023-10-15T15:39:26.798Z,1.00
2023-10-15T15:41:53.567Z,0.90
2023-10-15T15:44:22.781Z,1.10
2023-10-15T15:46:50.892Z,1.27
2023-10-15T15:49:17.899Z,1.03
2023-10-15T15:51:44.772Z,1.20
2023-10-15T15:54:11.651Z,1.05
2023-10-15T15:56:38.540Z,1.17
2023-10-15T15:59:06.727Z,1.17
2023-10-15T16:01:44.834Z,1.10
2023-10-15T16:04:12.680Z,1.20
2023-10-15T16:06:40.283Z,1.25
2023-10-15T16:09:11.247Z,1.00
2023-10-15T16:11:38.943Z,1.33
2023-10-15T16:14:06.019Z,1.27
2023-10-15T16:16:32.907Z,1.35
2023-10-15T16:18:59.813Z,1.45
2023-10-15T16:21:27.441Z,1.50
2023-10-15T16:23:55.368Z,1.50
2023-10-15T16:26:22.402Z,1.53
2023-10-15T16:28:49.491Z,1.45
2023-10-15T16:31:16.498Z,1.30
2023-10-15T16:33:43.445Z,1.42
2023-10-15T16:36:10.253Z,1.40
2023-10-15T16:38:37.108Z,1.33
2023-10-15T16:41:04.192Z,1.60
2023-10-15T16:43:31.099Z,1.60
2023-10-15T16:45:58.950Z,1.42
2023-10-15T16:48:26.511Z,1.58
2023-10-15T16:50:55.711Z,1.80
2023-10-15T16:53:25.202Z,1.77
2023-10-15T16:55:52.212Z,2.22
2023-10-15T16:58:19.097Z,2.00
2023-10-15T17:00:47.287Z,1.70
2023-10-15T17:03:14.155Z,2.00
2023-10-15T17:05:41.108Z,2.45
2023-10-15T17:08:08.676Z,3.38
2023-10-15T17:10:35.544Z,3.47
2023-10-15T17:13:02.353Z,2.80
2023-10-15T17:15:29.190Z,1.70
2023-10-15T17:17:56.059Z,1.40
2023-10-15T17:20:27.104Z,1.52
2023-10-15T17:22:55.039Z,1.40
2023-10-15T17:25:22.092Z,1.40
2023-10-15T17:27:49.014Z,1.50
2023-10-15T17:30:19.144Z,1.30
2023-10-15T17:32:47.347Z,1.55
2023-10-15T17:35:14.251Z,1.33
2023-10-15T17:37:41.250Z,1.40
2023-10-15T17:40:08.593Z,1.40
2023-10-15T17:42:37.275Z,1.60
2023-10-15T17:45:04.822Z,1.42
2023-10-15T17:47:31.744Z,1.50
2023-10-15T17:49:59.499Z,1.40
2023-10-15T17:52:26.411Z,1.60
2023-10-15T17:54:53.425Z,2.03
2023-10-15T17:57:21.493Z,3.25
2023-10-15T17:59:48.290Z,3.03
2023-10-15T18:02:15.126Z,3.50
2023-10-15T18:04:42.955Z,3.63
2023-10-15T18:07:10.698Z,3.83
2023-10-15T18:09:39.165Z,3.75
2023-10-15T18:12:08.409Z,2.80
2023-10-15T18:14:36.242Z,2.50
2023-10-15T18:17:03.646Z,2.23
2023-10-15T18:19:31.094Z,2.00
2023-10-15T18:21:57.881Z,2.20
2023-10-15T18:24:25.477Z,2.00
2023-10-15T18:26:52.666Z,2.00
2023-10-15T18:29:21.058Z,2.00
2023-10-15T18:31:47.862Z,2.47
2023-10-15T18:34:14.621Z,2.20
2023-10-15T18:36:41.564Z,2.50
2023-10-15T18:39:11.916Z,2.72
2023-10-15T18:41:39.941Z,2.67
2023-10-15T18:44:06.883Z,3.28
2023-10-15T18:46:33.814Z,3.95
2023-10-15T18:49:02.673Z,3.70
2023-10-15T18:51:37.574Z,3.70
2023-10-15T18:54:05.598Z,3.30
2023-10-15T18:56:35.651Z,3.17
2023-10-15T18:59:03.816Z,3.35
2023-10-15T19:01:32.901Z,3.22
2023-10-15T19:04:00.286Z,2.83
2023-10-15T19:06:27.418Z,3.20
2023-10-15T19:08:55.676Z,2.90
2023-10-15T19:11:23.020Z,2.90
2023-10-15T19:13:51.903Z,3.20
2023-10-15T19:16:18.813Z,3.15
2023-10-15T19:18:47.177Z,3.30
2023-10-15T19:21:14.189Z,3.30
2023-10-15T19:23:41.070Z,3.20
2023-10-15T19:26:09.425Z,3.15
2023-10-15T19:28:38.768Z,3.40
2023-10-15T19:31:06.675Z,3.10
2023-10-15T19:33:33.614Z,3.28
2023-10-15T19:36:01.990Z,3.40
2023-10-15T19:38:31.130Z,3.25
2023-10-15T19:41:01.544Z,3.50
2023-10-15T19:43:32.204Z,9.97
2023-10-15T19:45:59.930Z,23.55
2023-10-15T19:48:27.445Z,10.63
2023-10-15T19:50:54.333Z,12.55
2023-10-15T19:53:27.462Z,10.00
2023-10-15T19:55:54.947Z,10.53
2023-10-15T19:58:23.651Z,10.50
2023-10-15T20:00:51.118Z,10.15
2023-10-15T20:03:18.529Z,9.45
2023-10-15T20:05:47.444Z,6.68
2023-10-15T20:08:15.688Z,4.70
2023-10-15T20:10:43.516Z,4.20
2023-10-15T20:13:11.845Z,3.83
2023-10-15T20:15:39.268Z,4.07
2023-10-15T20:18:06.392Z,4.10
2023-10-15T20:20:33.356Z,3.80
2023-10-15T20:23:00.220Z,3.75
2023-10-15T20:25:27.142Z,3.78
2023-10-15T20:27:55.239Z,4.15
2023-10-15T20:30:22.267Z,3.88
2023-10-15T20:32:55.359Z,4.00
2023-10-15T20:35:24.475Z,3.90
2023-10-15T20:37:53.072Z,3.78
2023-10-15T20:40:21.830Z,3.78
2023-10-15T20:42:50.472Z,3.65
2023-10-15T20:45:20.202Z,3.80
2023-10-15T20:47:49.179Z,3.60
2023-10-15T20:50:18.368Z,3.70
2023-10-15T20:52:47.061Z,3.80
2023-10-15T20:55:15.081Z,3.80
2023-10-15T20:57:43.225Z,3.80
2023-10-15T21:00:12.744Z,3.22
2023-10-15T21:02:42.095Z,3.25
2023-10-15T21:05:13.189Z,3.05
2023-10-15T21:07:47.676Z,2.90
2023-10-15T21:10:16.045Z,3.23
2023-10-15T21:12:44.631Z,2.97
2023-10-15T21:15:13.669Z,2.75
2023-10-15T21:17:41.560Z,2.90
2023-10-15T21:20:11.238Z,2.90
2023-10-15T21:22:40.273Z,3.00
2023-10-15T21:25:11.193Z,2.70
2023-10-15T21:27:38.762Z,2.70
2023-10-15T21:30:13.084Z,2.60
2023-10-15T21:32:45.198Z,2.70
2023-10-15T21:35:21.089Z,2.57
2023-10-15T21:37:47.984Z,2.70
2023-10-15T21:40:17.665Z,2.88
2023-10-15T21:42:44.720Z,2.72
2023-10-15T21:45:12.880Z,2.60
2023-10-15T21:47:40.947Z,2.67
2023-10-15T21:50:08.262Z,2.53
2023-10-15T21:52:36.528Z,2.50
2023-10-15T21:55:05.749Z,2.45
2023-10-15T21:57:32.841Z,2.30
2023-10-15T22:00:00.285Z,2.40
2023-10-15T22:02:27.203Z,2.50
2023-10-15T22:04:54.062Z,2.65
2023-10-15T22:07:20.924Z,2.50
2023-10-15T22:09:48.935Z,2.50
2023-10-15T22:12:15.887Z,2.60
2023-10-15T22:14:46.907Z,2.40
2023-10-15T22:17:16.868Z,2.60
2023-10-15T22:19:44.207Z,2.38
2023-10-15T22:22:12.127Z,2.72
2023-10-15T22:24:42.538Z,2.50
2023-10-15T22:27:15.798Z,2.40
2023-10-15T22:29:43.376Z,2.50
2023-10-15T22:32:11.538Z,2.22
2023-10-15T22:34:39.203Z,2.38
2023-10-15T22:37:09.375Z,2.37
2023-10-15T22:39:40.006Z,2.05
2023-10-15T22:42:16.425Z,2.20
2023-10-15T22:44:47.166Z,2.30
2023-10-15T22:47:17.167Z,2.15
2023-10-15T22:49:45.796Z,2.07
2023-10-15T22:52:16.936Z,2.20
2023-10-15T22:54:44.031Z,2.20
2023-10-15T22:57:12.201Z,2.10
2023-10-15T22:59:39.377Z,2.10
2023-10-15T23:02:09.133Z,2.20
2023-10-15T23:04:36.250Z,1.98
2023-10-15T23:07:04.399Z,2.15
2023-10-15T23:09:31.438Z,1.90
2023-10-15T23:12:01.549Z,2.45
2023-10-15T23:14:28.444Z,2.10
2023-10-15T23:16:55.390Z,2.25
2023-10-15T23:19:27.539Z,2.20
2023-10-15T23:21:59.872Z,2.05
2023-10-15T23:24:27.267Z,2.25
2023-10-15T23:26:54.368Z,2.10
2023-10-15T23:29:25.576Z,2.00
2023-10-15T23:31:52.727Z,2.30
2023-10-15T23:34:19.695Z,2.05
2023-10-15T23:36:46.602Z,2.30
2023-10-15T23:39:20.397Z,2.20
2023-10-15T23:41:50.776Z,2.15
2023-10-15T23:44:22.668Z,2.00
2023-10-15T23:46:49.725Z,2.70
2023-10-15T23:49:26.516Z,2.28
2023-10-15T23:51:53.494Z,2.40
2023-10-15T23:54:27.791Z,2.38
2023-10-15T23:56:55.053Z,2.50
2023-10-15T23:59:22.734Z,2.40
